createdAt,value
2022-08-22T00:41:36.363Z,84.30
2022-08-22T00:44:51.598Z,99.90
2022-08-22T00:47:59.909Z,99.90
2022-08-22T00:50:57.785Z,99.90
2022-08-22T00:53:49.511Z,99.90
2022-08-22T00:56:22.172Z,99.90
2022-08-22T10:53:15.209Z,99.90
2022-08-22T10:55:45.338Z,80.00
2022-08-22T10:58:26.768Z,78.30
2022-08-22T11:00:58.629Z,77.60
2022-08-22T11:03:44.596Z,77.90
2022-08-22T11:06:37.383Z,78.00
2022-08-22T11:09:21.825Z,76.00
2022-08-22T11:12:04.322Z,75.70
2022-08-22T11:14:37.898Z,75.30
2022-08-22T11:17:40.716Z,75.10
2022-08-22T11:20:28.661Z,75.30
2022-08-22T11:23:14.214Z,74.80
2022-08-22T11:25:58.618Z,73.60
2022-08-22T11:28:56.840Z,74.00
2022-08-22T11:32:07.983Z,74.40
2022-08-22T11:34:58.314Z,74.40
2022-08-22T11:37:44.224Z,75.10
2022-08-22T11:40:22.457Z,75.10
2022-08-22T11:43:07.797Z,74.40
2022-08-22T11:45:47.690Z,73.50
2022-08-22T11:48:29.459Z,73.50
2022-08-22T11:50:59.148Z,73.60
2022-08-22T11:53:55.726Z,72.50
2022-08-22T11:56:54.682Z,72.20
2022-08-22T11:59:57.384Z,72.40
2022-08-22T12:02:51.689Z,72.40
2022-08-22T12:05:24.342Z,69.20
2022-08-22T12:08:10.320Z,70.20
2022-08-22T12:10:54.481Z,70.80
2022-08-22T12:13:50.173Z,70.00
2022-08-22T12:16:37.378Z,69.50
2022-08-22T12:19:32.888Z,68.80
2022-08-22T12:22:18.436Z,68.70
2022-08-22T12:25:02.987Z,67.20
2022-08-22T14:33:22.201Z,62.50
2022-08-22T14:35:57.147Z,55.80
2022-08-22T14:38:33.408Z,57.90
2022-08-22T14:41:07.684Z,56.40
2022-08-22T14:43:35.208Z,57.10
2022-08-22T14:46:12.628Z,57.90
2022-08-22T14:49:01.698Z,58.70
2022-08-22T14:51:29.624Z,58.50
2022-08-22T14:54:21.457Z,60.30
2022-08-22T14:56:51.649Z,59.60
2022-08-22T14:59:50.076Z,59.00
2022-08-22T15:02:28.158Z,59.40
2022-08-22T15:04:58.481Z,59.50
2022-08-22T15:07:29.942Z,59.20
2022-08-22T15:10:06.189Z,61.30
2022-08-22T15:12:37.832Z,61.40
2022-08-22T15:15:15.546Z,60.30
2022-08-22T15:17:45.845Z,67.70
2022-08-22T15:20:35.644Z,60.40
2022-08-22T15:23:19.783Z,59.40
2022-08-22T15:25:58.689Z,65.60
2022-08-22T15:28:26.266Z,58.70
2022-08-22T15:31:06.289Z,60.70
2022-08-22T15:33:39.245Z,59.40
2022-08-22T15:36:16.324Z,59.80
2022-08-22T22:56:54.303Z,60.70
2022-08-22T22:59:24.742Z,88.80
2022-08-22T23:02:04.390Z,88.20
2022-08-22T23:04:33.665Z,87.90
2022-08-22T23:07:01.358Z,88.70
2022-08-22T23:26:59.030Z,88.80
2022-08-22T23:29:26.399Z,90.50
2022-08-22T23:31:58.046Z,90.00
2022-08-22T23:34:31.193Z,90.10
2022-08-22T23:37:00.801Z,90.30
2022-08-22T23:39:30.386Z,90.30
2022-08-22T23:41:58.210Z,90.30
2022-08-22T23:44:30.387Z,90.50
2022-08-22T23:46:58.085Z,90.60
2022-08-22T23:49:25.521Z,90.70
2022-08-22T23:51:53.260Z,90.60
2022-08-22T23:54:21.509Z,91.00
